地図

経路データ

SID SEASON NUMBER BASIN SUBBASIN NAME ISO_TIME NATURE LAT LON WMO_WIND WMO_PRES WMO_AGENCY TRACK_TYPE DIST2LAND LANDFALL IFLAG USA_AGENCY USA_ATCF_ID USA_LAT USA_LON USA_RECORD USA_STATUS USA_WIND USA_PRES USA_SSHS USA_R34_NE USA_R34_SE USA_R34_SW USA_R34_NW USA_R50_NE USA_R50_SE USA_R50_SW USA_R50_NW USA_R64_NE USA_R64_SE USA_R64_SW USA_R64_NW USA_POCI USA_ROCI USA_RMW USA_EYE TOKYO_LAT TOKYO_LON TOKYO_GRADE TOKYO_WIND TOKYO_PRES TOKYO_R50_DIR TOKYO_R50_LONG TOKYO_R50_SHORT TOKYO_R30_DIR TOKYO_R30_LONG TOKYO_R30_SHORT TOKYO_LAND CMA_LAT CMA_LON CMA_CAT CMA_WIND CMA_PRES HKO_LAT HKO_LON HKO_CAT HKO_WIND HKO_PRES NEWDELHI_LAT NEWDELHI_LON NEWDELHI_GRADE NEWDELHI_WIND NEWDELHI_PRES NEWDELHI_CI NEWDELHI_DP NEWDELHI_POCI REUNION_LAT REUNION_LON REUNION_TYPE REUNION_WIND REUNION_PRES REUNION_TNUM REUNION_CI REUNION_RMW REUNION_R34_NE REUNION_R34_SE REUNION_R34_SW REUNION_R34_NW REUNION_R50_NE REUNION_R50_SE REUNION_R50_SW REUNION_R50_NW REUNION_R64_NE REUNION_R64_SE REUNION_R64_SW REUNION_R64_NW BOM_LAT BOM_LON BOM_TYPE BOM_WIND BOM_PRES BOM_TNUM BOM_CI BOM_RMW BOM_R34_NE BOM_R34_SE BOM_R34_SW BOM_R34_NW BOM_R50_NE BOM_R50_SE BOM_R50_SW BOM_R50_NW BOM_R64_NE BOM_R64_SE BOM_R64_SW BOM_R64_NW BOM_ROCI BOM_POCI BOM_EYE BOM_POS_METHOD BOM_PRES_METHOD NADI_LAT NADI_LON NADI_CAT NADI_WIND NADI_PRES WELLINGTON_LAT WELLINGTON_LON WELLINGTON_WIND WELLINGTON_PRES DS824_LAT DS824_LON DS824_STAGE DS824_WIND DS824_PRES TD9636_LAT TD9636_LON TD9636_STAGE TD9636_WIND TD9636_PRES TD9635_LAT TD9635_LON TD9635_WIND TD9635_PRES TD9635_ROCI NEUMANN_LAT NEUMANN_LON NEUMANN_CLASS NEUMANN_WIND NEUMANN_PRES MLC_LAT MLC_LON MLC_CLASS MLC_WIND MLC_PRES USA_GUST BOM_GUST BOM_GUST_PER REUNION_GUST REUNION_GUST_PER USA_SEAHGT USA_SEARAD_NE USA_SEARAD_SE USA_SEARAD_SW USA_SEARAD_NW STORM_SPEED STORM_DIR
1972294N06061 1972 115 NI AS NOT_NAMED 1972-10-19 15:00:00 NR 5.60000 60.7000 main 1038 908 __________O___ -1 5.60000 60.7000 1 30 353
1972294N06061 1972 115 NI AS NOT_NAMED 1972-10-19 18:00:00 TS 7.07801 60.5209 main 901 798 O________OP___ jtwc_io IO121972 7.20000 60.5000 -1 7.20000 60.5000 TC 25 6.95603 60.5417 1 29 353
1972294N06061 1972 115 NI AS NOT_NAMED 1972-10-19 21:00:00 TS 8.42161 60.3600 main 798 718 P________PP___ IO121972 8.58008 60.3403 -1 8.58008 60.3403 TC 25 8.21033 60.3863 1 24 353
1972294N06061 1972 115 NI AS NOT_NAMED 1972-10-20 00:00:00 TS 9.46369 60.2150 main 712 676 O________OP___ jtwc_io IO121972 9.60000 60.2000 -1 9.60000 60.2000 TC 25 9.25922 60.2376 1 16 351
1972294N06061 1972 115 NI AS NOT_NAMED 1972-10-20 03:00:00 TS 10.0149 60.0949 main 676 657 P________PO___ IO121972 10.0224 60.0924 -1 10.0224 60.0924 TC 25 10.0000 60.1000 1 8 343
1972294N06061 1972 115 NI AS NOT_NAMED 1972-10-20 06:00:00 TS 10.1897 59.9923 main 657 642 O________OP___ jtwc_io IO121972 10.1000 60.0000 -1 10.1000 60.0000 TC 25 10.3692 59.9770 1 3 321
1972294N06061 1972 115 NI AS NOT_NAMED 1972-10-20 09:00:00 TS 10.2673 59.8898 main 642 632 P________PP___ IO121972 10.1725 59.9000 -1 10.1725 59.9000 TC 25 10.4570 59.8694 1 2 290
1972294N06061 1972 115 NI AS NOT_NAMED 1972-10-20 12:00:00 TS 10.2638 59.7924 main 632 622 O________OP___ jtwc_io IO121972 10.2000 59.8000 -1 10.2000 59.8000 TC 25 10.3913 59.7771 1 2 279
1972294N06061 1972 115 NI AS NOT_NAMED 1972-10-20 15:00:00 TS 10.3000 59.6900 main 622 608 P________PO___ IO121972 10.3000 59.6850 -1 10.3000 59.6850 TC 25 10.3000 59.7000 1 2 306
1972294N06061 1972 115 NI AS NOT_NAMED 1972-10-20 18:00:00 TS 10.3930 59.6132 main 608 608 O________OP___ jtwc_io IO121972 10.4000 59.6000 -1 10.4000 59.6000 TC 25 10.3790 59.6397 1 2 330
1972294N06061 1972 115 NI AS NOT_NAMED 1972-10-20 21:00:00 TS 10.4525 59.5975 main 603 603 P________PP___ IO121972 10.4500 59.6000 -1 10.4500 59.6000 TC 30 10.4575 59.5925 1 1 340
1972294N06061 1972 115 NI AS NOT_NAMED 1972-10-21 00:00:00 TS 10.5107 59.5830 main 603 589 O________OP___ jtwc_io IO121972 10.5000 59.6000 -1 10.5000 59.6000 TC 35 10.5322 59.5490 1 2 329
1972294N06061 1972 115 NI AS NOT_NAMED 1972-10-21 03:00:00 TS 10.6000 59.5050 main 589 574 P________PO___ IO121972 10.6000 59.5075 -1 10.6000 59.5075 TC 35 10.6000 59.5000 2 2 315
1972294N06061 1972 115 NI AS NOT_NAMED 1972-10-21 06:00:00 TS 10.6857 59.4080 main 574 564 O________OP___ jtwc_io IO121972 10.7000 59.4000 -1 10.7000 59.4000 TC 35 10.6572 59.4241 2 2 312
1972294N06061 1972 115 NI AS NOT_NAMED 1972-10-21 09:00:00 TS 10.7458 59.3425 main 564 560 P________PP___ IO121972 10.7650 59.3425 -1 10.7650 59.3425 TC 35 10.7075 59.3425 2 2 310
1972294N06061 1972 115 NI AS NOT_NAMED 1972-10-21 12:00:00 TS 10.7847 59.2882 main 560 550 O________OP___ jtwc_io IO121972 10.8000 59.3000 -1 10.8000 59.3000 TC 35 10.7541 59.2647 2 1 296
1972294N06061 1972 115 NI AS NOT_NAMED 1972-10-21 15:00:00 TS 10.8000 59.2283 main 550 550 P________PO___ IO121972 10.8000 59.2425 -1 10.8000 59.2425 TC 35 10.8000 59.2000 2 1 287
1972294N06061 1972 115 NI AS NOT_NAMED 1972-10-21 18:00:00 TS 10.8099 59.1977 main 550 550 O________OP___ jtwc_io IO121972 10.8000 59.2000 -1 10.8000 59.2000 TC 35 10.8296 59.1930 2 0 0
1972294N06061 1972 115 NI AS NOT_NAMED 1972-10-21 21:00:00 TS 10.8441 59.2083 main 550 546 P________PP___ IO121972 10.8350 59.2150 -1 10.8350 59.2150 TC 35 10.8624 59.1948 2 1 348
1972294N06061 1972 115 NI AS NOT_NAMED 1972-10-22 00:00:00 TS 10.9047 59.1914 main 546 532 O________OP___ jtwc_io IO121972 10.9000 59.2000 -1 10.9000 59.2000 TC 35 10.9140 59.1742 2 2 319
1972294N06061 1972 115 NI AS NOT_NAMED 1972-10-22 03:00:00 TS 10.9850 59.0867 main 532 507 P________PO___ IO121972 10.9775 59.0800 -1 10.9775 59.0800 TC 35 11.0000 59.1000 2 3 307
1972294N06061 1972 115 NI AS NOT_NAMED 1972-10-22 06:00:00 TS 11.1130 58.9136 main 507 479 O________OP___ jtwc_io IO121972 11.1000 58.9000 -1 11.1000 58.9000 TC 35 11.1391 58.9407 2 5 311
1972294N06061 1972 115 NI AS NOT_NAMED 1972-10-22 09:00:00 TS 11.2942 58.7233 main 479 452 P________PP___ IO121972 11.2850 58.7225 -1 11.2850 58.7225 TC 35 11.3125 58.7251 2 6 313
1972294N06061 1972 115 NI AS NOT_NAMED 1972-10-22 12:00:00 TS 11.5016 58.4906 main 452 414 O________OP___ jtwc_io IO121972 11.5000 58.5000 -1 11.5000 58.5000 TC 35 11.5047 58.4719 2 7 309
1972294N06061 1972 115 NI AS NOT_NAMED 1972-10-22 15:00:00 TS 11.7050 58.2050 main 414 377 P________PO___ IO121972 11.7075 58.2075 -1 11.7075 58.2075 TC 35 11.7000 58.2000 2 7 305
1972294N06061 1972 115 NI AS NOT_NAMED 1972-10-22 18:00:00 TS 11.8984 57.9172 main 377 352 O________OP___ jtwc_io IO121972 11.9000 57.9000 -1 11.9000 57.9000 TC 35 11.8952 57.9516 2 6 304
1972294N06061 1972 115 NI AS NOT_NAMED 1972-10-22 21:00:00 TS 12.0674 57.6625 main 352 318 P________PP___ IO121972 12.0574 57.6499 -1 12.0574 57.6499 TC 35 12.0873 57.6876 2 6 303
1972294N06061 1972 115 NI AS NOT_NAMED 1972-10-23 00:00:00 TS 12.2203 57.4016 main 318 283 O________OP___ jtwc_io IO121972 12.2000 57.4000 -1 12.2000 57.4000 TC 35 12.2608 57.4048 2 6 300
1972294N06061 1972 115 NI AS NOT_NAMED 1972-10-23 03:00:00 TS 12.3766 57.1150 main 283 250 P________PO___ IO121972 12.3649 57.1225 -1 12.3649 57.1225 TC 35 12.4000 57.1000 2 7 294
1972294N06061 1972 115 NI AS NOT_NAMED 1972-10-23 06:00:00 TS 12.4967 56.7810 main 250 206 O________OP___ jtwc_io IO121972 12.5000 56.8000 -1 12.5000 56.8000 TC 35 12.4902 56.7430 2 7 285
1972294N06061 1972 115 NI AS NOT_NAMED 1972-10-23 09:00:00 TS 12.5635 56.3849 main 206 162 P________PP___ IO121972 12.5726 56.3925 -1 12.5726 56.3925 TC 50 12.5453 56.3698 2 8 277
1972294N06061 1972 115 NI AS NOT_NAMED 1972-10-23 12:00:00 TS 12.5926 56.0039 main 162 130 O________OP___ jtwc_io IO121972 12.6000 56.0000 -1 12.6000 56.0000 TC 65 12.5777 56.0118 2 7 273
1972294N06061 1972 115 NI AS NOT_NAMED 1972-10-23 15:00:00 TS 12.6000 55.7083 main 130 108 P________PO___ IO121972 12.5999 55.7125 -1 12.5999 55.7125 TC 65 12.6000 55.7000 4 5 272
1972294N06061 1972 115 NI AS NOT_NAMED 1972-10-23 18:00:00 TS 12.6133 55.4983 main 108 87 O________OP___ jtwc_io IO121972 12.6000 55.5000 -1 12.6000 55.5000 TC 65 12.6399 55.4950 4 4 279
1972294N06061 1972 115 NI AS NOT_NAMED 1972-10-23 21:00:00 TS 12.6573 55.3400 main 87 76 P________PP___ IO121972 12.6499 55.3425 -1 12.6499 55.3425 TC 65 12.6720 55.3350 4 3 286
1972294N06061 1972 115 NI AS NOT_NAMED 1972-10-24 00:00:00 TS 12.6977 55.1942 main 76 55 O________OP___ jtwc_io IO121972 12.7000 55.2000 -1 12.7000 55.2000 TC 65 12.6931 55.1825 4 3 279
1972294N06061 1972 115 NI AS NOT_NAMED 1972-10-24 03:00:00 TS 12.7100 55.0150 main 55 34 P________PO___ IO121972 12.7150 55.0225 -1 12.7150 55.0225 TC 50 12.7000 55.0000 4 4 270
1972294N06061 1972 115 NI AS NOT_NAMED 1972-10-24 06:00:00 TS 12.6978 54.7868 main 34 11 O________OP___ jtwc_io IO121972 12.7000 54.8000 -1 12.7000 54.8000 TC 35 12.6933 54.7603 4 5 264
1972294N06061 1972 115 NI AS NOT_NAMED 1972-10-24 09:00:00 TS 12.6574 54.5141 main 11 0 P________PP___ IO121972 12.6500 54.5300 -1 12.6500 54.5300 TC 35 12.6722 54.4825 4 6 262
1972294N06061 1972 115 NI AS NOT_NAMED 1972-10-24 12:00:00 TS 12.6134 54.1878 main 0 0 O________OP___ jtwc_io IO121972 12.6000 54.2000 -1 12.6000 54.2000 TC 35 12.6401 54.1634 4 7 265
1972294N06061 1972 115 NI AS NOT_NAMED 1972-10-24 15:00:00 TS 12.6000 53.8200 main 0 0 P________PO___ IO121972 12.5999 53.8301 -1 12.5999 53.8301 TC 35 12.6000 53.8000 2 8 268
1972294N06061 1972 115 NI AS NOT_NAMED 1972-10-24 18:00:00 TS 12.5872 53.3936 main 0 0 O________OP___ jtwc_io IO121972 12.6000 53.4000 -1 12.6000 53.4000 TC 35 12.5615 53.3809 2 9 267
1972294N06061 1972 115 NI AS NOT_NAMED 1972-10-24 21:00:00 TS 12.5485 52.9075 main 43 43 P________PP___ IO121972 12.5651 52.9000 -1 12.5651 52.9000 TC 35 12.5153 52.9225 2 10 264
1972294N06061 1972 115 NI AS NOT_NAMED 1972-10-25 00:00:00 TS 12.4871 52.4176 main 97 97 O________OP___ jtwc_io IO121972 12.5000 52.4000 -1 12.5000 52.4000 TC 35 12.4614 52.4528 2 9 261
1972294N06061 1972 115 NI AS NOT_NAMED 1972-10-25 03:00:00 TS 12.3999 51.9900 main 101 64 P________PO___ IO121972 12.3999 51.9850 -1 12.3999 51.9850 TC 35 12.4000 52.0000 2 8 258
1972294N06061 1972 115 NI AS NOT_NAMED 1972-10-25 06:00:00 TS 12.3126 51.5942 main 64 40 O________OP___ jtwc_io IO121972 12.3000 51.6000 -1 12.3000 51.6000 TC 35 12.3315 51.5856 2 8 259
1972294N06061 1972 115 NI AS NOT_NAMED 1972-10-25 09:00:00 TS 12.2462 51.2050 main 40 33 P________PP___ IO121972 12.2377 51.2050 -1 12.2377 51.2050 TC 35 12.2575 51.2049 2 8 261
1972294N06061 1972 115 NI AS NOT_NAMED 1972-10-25 12:00:00 TS 12.1899 50.8234 main 33 22 O________OP___ jtwc_io IO121972 12.2000 50.8000 -1 12.2000 50.8000 TC 35 12.1798 50.8468 2 7 258
1972294N06061 1972 115 NI AS NOT_NAMED 1972-10-25 15:00:00 NR 12.1000 50.5000 main 24 __________O___ IO121972 -1 TC 12.1000 50.5000 2 7 254

IBTrACS Databaseについて

本データベースは、米国NOAAが公開する1842年以降の世界の熱帯低気圧のベストトラックデータアーカイブInternational Best Track Archive for Climate Stewardship (IBTrACS)を、ウェブで閲覧しやすい形式に変換したものです。

最終更新日:2021-11-26